Time;durP1;ratioP1;P1;durP2;ratioP2;P2;SDS_P1;SDS_P2;PMS_P1;PMS_P2;Temp;Humidity;BMP_temperature;BMP_pressure;BME280_temperature;BME280_humidity;BME280_pressure;Samples;Min_cycle;Max_cycle;Signal;HPM_P1;HPM_P2
2022/05/15 00:04:16;;;;;;;;;;;;;;;;;;5091553;27;20262;-73
2022/05/15 00:08:45;;;;;;;;;;;;;;;;;;5092028;27;20352;-74
2022/05/15 00:11:11;;;;;;;;;;;;;;;;;;5090095;28;20011;-74
2022/05/15 00:14:11;;;;;;;;;;;;;;;;;;5091471;27;19919;-73
2022/05/15 00:16:37;;;;;;;;;;;;;;;;;;5091324;28;19999;-74
2022/05/15 00:19:03;;;;;;;;;;;;;;;;;;5091005;28;20337;-74
2022/05/15 00:21:29;;;;;;;;;;;;;;;;;;5091193;28;19912;-74
2022/05/15 00:23:55;;;;;;;;;;;;;;;;;;5091121;28;19915;-75
2022/05/15 00:26:42;;;;;;;;;;;;;;;;;;5091408;27;19922;-74
2022/05/15 00:29:08;;;;;;;;;;;;;;;;;;5091305;28;20003;-75
2022/05/15 00:35:50;;;;;;;;;;;;;;;;;;5092023;27;19916;-73
2022/05/15 00:38:52;;;;;;;;;;;;;;;;;;5091974;27;19917;-73
2022/05/15 00:43:10;;;;;;;;;;;;;;;;;;5091678;27;19919;-73
2022/05/15 00:45:36;;;;;;;;;;;;;;;;;;5091290;28;19913;-75
2022/05/15 00:48:02;;;;;;;;;;;;;;;;;;5090770;28;19909;-75
2022/05/15 00:50:28;;;;;;;;;;;;;;;;;;5091776;28;19947;-74
2022/05/15 00:52:54;;;;;;;;;;;;;;;;;;5091150;28;20014;-74
2022/05/15 00:55:20;;;;;;;;;;;;;;;;;;5090739;28;19908;-74
2022/05/15 00:59:20;;;;;;;;;;;;;;;;;;5091998;27;20280;-73
2022/05/15 01:07:23;;;;;;;;;;;;;;;;;;5173808;27;20002;-73
2022/05/15 01:09:50;;;;;;;;;;;;;;;;;;5173381;27;20374;-73
2022/05/15 01:12:16;;;;;;;;;;;;;;;;;;5174006;27;19942;-74
2022/05/15 01:14:42;;;;;;;;;;;;;;;;;;5174014;27;19911;-73
2022/05/15 01:17:09;;;;;;;;;;;;;;;;;;5173111;27;20295;-73
2022/05/15 01:19:35;;;;;;;;;;;;;;;;;;5173407;27;20006;-73
2022/05/15 01:28:34;;;;;;;;;;;;;;;;;;5091469;27;19917;-74
2022/05/15 01:35:17;;;;;;;;;;;;;;;;;;5092128;27;19995;-73
2022/05/15 01:37:43;;;;;;;;;;;;;;;;;;5090905;28;20007;-73
2022/05/15 01:42:08;;;;;;;;;;;;;;;;;;5091945;27;19923;-73
2022/05/15 01:46:06;;;;;;;;;;;;;;;;;;5091669;27;19923;-73
2022/05/15 01:48:32;;;;;;;;;;;;;;;;;;5091308;28;19912;-73
2022/05/15 01:52:13;;;;;;;;;;;;;;;;;;5091079;27;19916;-73
2022/05/15 01:54:40;;;;;;;;;;;;;;;;;;5091281;28;20007;-73
2022/05/15 01:57:06;;;;;;;;;;;;;;;;;;5091186;28;19950;-73
2022/05/15 02:03:29;;;;;;;;;;;;;;;;;;5091712;27;19913;-74
2022/05/15 02:05:55;;;;;;;;;;;;;;;;;;5089933;28;20378;-74
2022/05/15 02:11:09;;;;;;;;;;;;;;;;;;5091836;27;19922;-74
2022/05/15 02:13:48;;;;;;;;;;;;;;;;;;5091035;27;19916;-74
2022/05/15 02:18:50;;;;;;;;;;;;;;;;;;5091288;28;19918;-74
2022/05/15 02:21:16;;;;;;;;;;;;;;;;;;5091304;28;19967;-74
2022/05/15 02:23:42;;;;;;;;;;;;;;;;;;5091285;28;19908;-74
2022/05/15 02:26:08;;;;;;;;;;;;;;;;;;5090777;28;19918;-74
2022/05/15 02:28:34;;;;;;;;;;;;;;;;;;5091124;28;19984;-75
2022/05/15 02:35:03;;;;;;;;;;;;;;;;;;5091412;27;19917;-74
2022/05/15 02:43:40;;;;;;;;;;;;;;;;;;5091504;28;19913;-74
2022/05/15 02:46:06;;;;;;;;;;;;;;;;;;5091341;28;20027;-72
2022/05/15 02:51:09;;;;;;;;;;;;;;;;;;5092041;27;19923;-73
2022/05/15 02:54:24;;;;;;;;;;;;;;;;;;5091455;27;19916;-73
2022/05/15 03:01:20;;;;;;;;;;;;;;;;;;5090926;27;19916;-74
2022/05/15 03:03:47;;;;;;;;;;;;;;;;;;5091271;28;19919;-74
2022/05/15 03:08:46;;;;;;;;;;;;;;;;;;5091267;27;20392;-73
2022/05/15 03:12:13;;;;;;;;;;;;;;;;;;5092033;27;19916;-74
2022/05/15 03:15:29;;;;;;;;;;;;;;;;;;5152833;27;20369;-74
2022/05/15 03:17:55;;;;;;;;;;;;;;;;;;5152862;27;20007;-74
2022/05/15 03:20:21;;;;;;;;;;;;;;;;;;5152809;27;20009;-74
2022/05/15 03:22:47;;;;;;;;;;;;;;;;;;5152500;27;19956;-74
2022/05/15 03:29:05;;;;;;;;;;;;;;;;;;5091019;27;20295;-75
2022/05/15 03:32:22;;;;;;;;;;;;;;;;;;5091900;27;19916;-74
2022/05/15 03:34:49;;;;;;;;;;;;;;;;;;5091287;28;19916;-74
2022/05/15 03:38:20;;;;;;;;;;;;;;;;;;5091848;27;20379;-74
2022/05/15 03:42:47;;;;;;;;;;;;;;;;;;5174274;27;19917;-74
2022/05/15 03:45:13;;;;;;;;;;;;;;;;;;5154799;27;20001;-74
2022/05/15 03:47:39;;;;;;;;;;;;;;;;;;5173692;27;19949;-74
2022/05/15 03:52:28;;;;;;;;;;;;;;;;;;5091582;28;20292;-73
2022/05/15 03:54:54;;;;;;;;;;;;;;;;;;5091434;28;20276;-73
2022/05/15 04:00:11;;;;;;;;;;;;;;;;;;5092099;27;19918;-73
2022/05/15 04:04:16;;;;;;;;;;;;;;;;;;5091054;27;19922;-74
2022/05/15 04:06:42;;;;;;;;;;;;;;;;;;5091511;28;19912;-73
2022/05/15 04:09:08;;;;;;;;;;;;;;;;;;5091165;28;20285;-73
2022/05/15 04:11:34;;;;;;;;;;;;;;;;;;5091044;28;19909;-74
2022/05/15 04:14:28;;;;;;;;;;;;;;;;;;5091864;27;19916;-73
2022/05/15 04:18:22;;;;;;;;;;;;;;;;;;5091618;27;19916;-73
2022/05/15 04:21:41;;;;;;;;;;;;;;;;;;5091988;27;19923;-74
2022/05/15 04:24:07;;;;;;;;;;;;;;;;;;5091391;28;19919;-74
2022/05/15 04:27:05;;;;;;;;;;;;;;;;;;5091089;27;19916;-74
2022/05/15 04:30:01;;;;;;;;;;;;;;;;;;5092161;27;19916;-74
2022/05/15 04:32:28;;;;;;;;;;;;;;;;;;5090914;28;19912;-74
2022/05/15 04:34:54;;;;;;;;;;;;;;;;;;5091416;28;19908;-74
2022/05/15 04:37:33;;;;;;;;;;;;;;;;;;5092110;27;19938;-73
2022/05/15 04:39:59;;;;;;;;;;;;;;;;;;5090807;28;20003;-73
2022/05/15 04:45:38;;;;;;;;;;;;;;;;;;5091959;27;19912;-75
2022/05/15 04:48:04;;;;;;;;;;;;;;;;;;5089599;28;19913;-73
2022/05/15 04:50:30;;;;;;;;;;;;;;;;;;5091172;28;19915;-73
2022/05/15 04:52:56;;;;;;;;;;;;;;;;;;5091214;28;20003;-73
2022/05/15 05:00:22;;;;;;;;;;;;;;;;;;5091346;27;19916;-74
2022/05/15 05:05:15;;;;;;;;;;;;;;;;;;5153408;27;20014;-74
2022/05/15 05:07:41;;;;;;;;;;;;;;;;;;5152395;27;19915;-74
2022/05/15 05:10:07;;;;;;;;;;;;;;;;;;5153368;27;19976;-74
2022/05/15 05:12:33;;;;;;;;;;;;;;;;;;5152817;27;19911;-74
2022/05/15 05:14:59;;;;;;;;;;;;;;;;;;5152315;27;19946;-74
2022/05/15 05:17:25;;;;;;;;;;;;;;;;;;5152619;27;20019;-74
2022/05/15 05:19:51;;;;;;;;;;;;;;;;;;5152604;27;19915;-74
2022/05/15 05:24:23;;;;;;;;;;;;;;;;;;5092126;27;19917;-75
2022/05/15 05:27:50;;;;;;;;;;;;;;;;;;5092055;27;20372;-75
2022/05/15 05:30:16;;;;;;;;;;;;;;;;;;5090967;28;20006;-75
2022/05/15 05:32:42;;;;;;;;;;;;;;;;;;5091253;28;20004;-75
2022/05/15 05:35:27;;;;;;;;;;;;;;;;;;5091995;27;19923;-73
2022/05/15 05:38:49;;;;;;;;;;;;;;;;;;5091897;27;20271;-75
2022/05/15 05:43:28;;;;;;;;;;;;;;;;;;5091297;27;19923;-74
2022/05/15 05:48:18;;;;;;;;;;;;;;;;;;5091619;27;19922;-74
2022/05/15 05:53:20;;;;;;;;;;;;;;;;;;5091334;27;19912;-73
2022/05/15 05:55:46;;;;;;;;;;;;;;;;;;5091093;28;20345;-74
2022/05/15 05:58:12;;;;;;;;;;;;;;;;;;5090824;28;20383;-74
2022/05/15 06:05:48;;;;;;;;;;;;;;;;;;5090977;27;19916;-74
2022/05/15 06:08:14;;;;;;;;;;;;;;;;;;5091334;28;20039;-74
2022/05/15 06:10:40;;;;;;;;;;;;;;;;;;5091142;28;20364;-74
2022/05/15 06:13:06;;;;;;;;;;;;;;;;;;5089951;28;19909;-74
2022/05/15 06:15:32;;;;;;;;;;;;;;;;;;5091148;28;20030;-73
2022/05/15 06:17:59;;;;;;;;;;;;;;;;;;5090960;28;19935;-75
2022/05/15 06:20:25;;;;;;;;;;;;;;;;;;5091147;28;19943;-74
2022/05/15 06:22:51;;;;;;;;;;;;;;;;;;5089668;28;19916;-75
2022/05/15 06:26:51;;;;;;;;;;;;;;;;;;5152559;27;19918;-74
2022/05/15 06:33:14;;;;;;;;;;;;;;;;;;5091119;27;19917;-74
2022/05/15 06:35:40;;;;;;;;;;;;;;;;;;5091218;28;19919;-73
2022/05/15 06:41:07;;;;;;;;;;;;;;;;;;5090989;27;20412;-74
2022/05/15 06:45:56;;;;;;;;;;;;;;;;;;5091539;28;20276;-74
2022/05/15 06:48:22;;;;;;;;;;;;;;;;;;5091258;28;20002;-73
2022/05/15 06:50:49;;;;;;;;;;;;;;;;;;5091153;28;20002;-75
2022/05/15 07:01:15;;;;;;;;;;;;;;;;;;5091177;28;19916;-74
2022/05/15 07:05:27;;;;;;;;;;;;;;;;;;5091481;27;19916;-74
2022/05/15 07:09:57;;;;;;;;;;;;;;;;;;5091979;28;19916;-74
2022/05/15 07:12:23;;;;;;;;;;;;;;;;;;5091266;28;19999;-73
2022/05/15 07:15:11;;;;;;;;;;;;;;;;;;5091269;27;19916;-74
2022/05/15 07:18:42;;;;;;;;;;;;;;;;;;5091728;27;19916;-73
2022/05/15 07:21:08;;;;;;;;;;;;;;;;;;5091046;28;20325;-73
2022/05/15 07:23:34;;;;;;;;;;;;;;;;;;5091207;28;20372;-74
2022/05/15 07:29:30;;;;;;;;;;;;;;;;;;5091055;27;20300;-74
2022/05/15 07:31:57;;;;;;;;;;;;;;;;;;5091314;28;20380;-73
2022/05/15 07:34:23;;;;;;;;;;;;;;;;;;5091458;28;19909;-73
2022/05/15 07:36:50;;;;;;;;;;;;;;;;;;5090728;28;19908;-73
2022/05/15 07:39:16;;;;;;;;;;;;;;;;;;5091035;28;19995;-73
2022/05/15 07:41:58;;;;;;;;;;;;;;;;;;5091239;27;19913;-74
2022/05/15 07:44:24;;;;;;;;;;;;;;;;;;5090761;28;20007;-74
2022/05/15 07:46:50;;;;;;;;;;;;;;;;;;5091117;28;20370;-74
2022/05/15 07:49:16;;;;;;;;;;;;;;;;;;5091199;28;19912;-74
2022/05/15 07:51:44;;;;;;;;;;;;;;;;;;5091256;28;19915;-74
2022/05/15 07:54:10;;;;;;;;;;;;;;;;;;5091172;28;19915;-75
2022/05/15 07:59:57;;;;;;;;;;;;;;;;;;5091301;27;19916;-73
2022/05/15 08:10:03;;;;;;;;;;;;;;;;;;5091221;28;19920;-73
2022/05/15 08:12:29;;;;;;;;;;;;;;;;;;5090721;28;19919;-73
2022/05/15 08:14:55;;;;;;;;;;;;;;;;;;5091053;28;19916;-74
2022/05/15 08:17:21;;;;;;;;;;;;;;;;;;5090667;28;19920;-73
2022/05/15 08:25:51;;;;;;;;;;;;;;;;;;5090908;28;19930;-73
2022/05/15 08:29:48;;;;;;;;;;;;;;;;;;5091396;27;19923;-73
2022/05/15 08:32:14;;;;;;;;;;;;;;;;;;5090924;28;20007;-73
2022/05/15 08:34:41;;;;;;;;;;;;;;;;;;5091213;28;20303;-74
2022/05/15 08:37:07;;;;;;;;;;;;;;;;;;5091595;28;19909;-73
2022/05/15 08:42:59;;;;;;;;;;;;;;;;;;5091960;27;19916;-74
2022/05/15 08:45:56;;;;;;;;;;;;;;;;;;5091443;28;19957;-73
2022/05/15 08:48:22;;;;;;;;;;;;;;;;;;5091249;28;20003;-73
2022/05/15 08:52:44;;;;;;;;;;;;;;;;;;5152718;27;20010;-74
2022/05/15 08:55:10;;;;;;;;;;;;;;;;;;5134289;27;20418;-74
2022/05/15 08:57:36;;;;;;;;;;;;;;;;;;5153213;27;19942;-73
2022/05/15 09:01:58;;;;;;;;;;;;;;;;;;5091646;27;20300;-73
2022/05/15 09:05:08;;;;;;;;;;;;;;;;;;5091658;28;20259;-73
2022/05/15 09:07:34;;;;;;;;;;;;;;;;;;5090856;28;19957;-73
2022/05/15 09:10:00;;;;;;;;;;;;;;;;;;5091706;28;19931;-73
2022/05/15 09:12:26;;;;;;;;;;;;;;;;;;5091480;28;20373;-73
2022/05/15 09:14:53;;;;;;;;;;;;;;;;;;5090700;28;19908;-73
2022/05/15 09:18:49;;;;;;;;;;;;;;;;;;5091757;27;19912;-74
2022/05/15 09:21:15;;;;;;;;;;;;;;;;;;5091081;28;20341;-74
2022/05/15 09:25:57;;;;;;;;;;;;;;;;;;5091532;28;19912;-73
2022/05/15 09:28:26;;;;;;;;;;;;;;;;;;5089529;28;19940;-73
2022/05/15 09:30:52;;;;;;;;;;;;;;;;;;5091209;28;19909;-74
2022/05/15 09:33:18;;;;;;;;;;;;;;;;;;5091131;28;19908;-73
2022/05/15 09:35:46;;;;;;;;;;;;;;;;;;5090667;28;19973;-73
2022/05/15 09:38:27;;;;;;;;;;;;;;;;;;5091123;28;19908;-73
2022/05/15 09:46:05;;;;;;;;;;;;;;;;;;5092083;27;19922;-73
2022/05/15 09:50:44;;;;;;;;;;;;;;;;;;5090916;27;19939;-75
2022/05/15 09:53:10;;;;;;;;;;;;;;;;;;5091252;28;19912;-73
2022/05/15 09:55:36;;;;;;;;;;;;;;;;;;5091320;28;19909;-73
2022/05/15 09:58:03;;;;;;;;;;;;;;;;;;5090731;28;19908;-72
2022/05/15 10:03:03;;;;;;;;;;;;;;;;;;5090907;27;19916;-72
2022/05/15 10:05:29;;;;;;;;;;;;;;;;;;5090938;28;19912;-73
2022/05/15 10:07:55;;;;;;;;;;;;;;;;;;5091354;28;20269;-73
2022/05/15 10:10:22;;;;;;;;;;;;;;;;;;5090867;28;19912;-73
2022/05/15 10:12:47;;;;;;;;;;;;;;;;;;5091107;28;19999;-73
2022/05/15 10:15:13;;;;;;;;;;;;;;;;;;5091064;28;19940;-73
2022/05/15 10:18:57;;;;;;;;;;;;;;;;;;5090853;27;20288;-73
2022/05/15 10:21:23;;;;;;;;;;;;;;;;;;5091217;28;19974;-73
2022/05/15 10:23:48;;;;;;;;;;;;;;;;;;5091203;28;20365;-73
2022/05/15 10:26:14;;;;;;;;;;;;;;;;;;5091566;28;19912;-74
2022/05/15 10:28:40;;;;;;;;;;;;;;;;;;5091038;28;20377;-74
2022/05/15 10:31:07;;;;;;;;;;;;;;;;;;5090905;28;19962;-74
2022/05/15 10:33:35;;;;;;;;;;;;;;;;;;5091038;28;20365;-73
2022/05/15 10:36:01;;;;;;;;;;;;;;;;;;5090822;28;19908;-73
2022/05/15 10:38:27;;;;;;;;;;;;;;;;;;5090803;28;20376;-73
2022/05/15 10:40:53;;;;;;;;;;;;;;;;;;5091008;28;19908;-73
2022/05/15 10:43:19;;;;;;;;;;;;;;;;;;5090835;28;19915;-73
2022/05/15 10:45:45;;;;;;;;;;;;;;;;;;5089096;28;19916;-73
2022/05/15 10:48:11;;;;;;;;;;;;;;;;;;5090759;28;19908;-73
2022/05/15 10:50:37;;;;;;;;;;;;;;;;;;5091099;28;19947;-73
2022/05/15 10:57:21;;;;;;;;;;;;;;;;;;5090563;28;19915;-73
2022/05/15 10:58:34;;;;;;;;;;;;;;;;;;5090562;28;20448;-73
2022/05/15 11:01:00;;;;;;;;;;;;;;;;;;5088825;28;19908;-73
2022/05/15 11:03:26;;;;;;;;;;;;;;;;;;5090473;28;20284;-72
2022/05/15 11:05:52;;;;;;;;;;;;;;;;;;5090470;28;19909;-72
2022/05/15 11:08:18;;;;;;;;;;;;;;;;;;5088646;28;20418;-72
2022/05/15 11:10:44;;;;;;;;;;;;;;;;;;5090293;28;19909;-72
2022/05/15 11:13:12;;;;;;;;;;;;;;;;;;5089918;28;19994;-72
2022/05/15 11:15:38;;;;;;;;;;;;;;;;;;5090237;28;19987;-73
2022/05/15 11:18:05;;;;;;;;;;;;;;;;;;5103381;28;19931;-73
2022/05/15 11:20:31;;;;;;;;;;;;;;;;;;5110101;28;19908;-73
2022/05/15 11:22:57;;;;;;;;;;;;;;;;;;5110385;28;19915;-73
2022/05/15 11:25:23;;;;;;;;;;;;;;;;;;5110440;28;20376;-73
2022/05/15 11:27:49;;;;;;;;;;;;;;;;;;5109908;28;19908;-73
2022/05/15 11:30:15;;;;;;;;;;;;;;;;;;5096736;28;19959;-73
2022/05/15 11:32:41;;;;;;;;;;;;;;;;;;5096730;28;19908;-72
2022/05/15 11:35:07;;;;;;;;;;;;;;;;;;5078007;28;20387;-72
2022/05/15 11:37:33;;;;;;;;;;;;;;;;;;5096549;28;19923;-72
2022/05/15 11:39:59;;;;;;;;;;;;;;;;;;5096549;28;20371;-72
2022/05/15 11:42:25;;;;;;;;;;;;;;;;;;5096102;28;19912;-73
2022/05/15 11:44:51;;;;;;;;;;;;;;;;;;5096649;28;20350;-73
2022/05/15 11:47:17;;;;;;;;;;;;;;;;;;5096370;28;20384;-73
2022/05/15 11:49:43;;;;;;;;;;;;;;;;;;5095962;28;19908;-72
2022/05/15 11:52:11;;;;;;;;;;;;;;;;;;5096339;28;20272;-73
2022/05/15 11:54:37;;;;;;;;;;;;;;;;;;5096165;28;19908;-73
2022/05/15 11:57:03;;;;;;;;;;;;;;;;;;5095704;28;19958;-73
2022/05/15 11:59:29;;;;;;;;;;;;;;;;;;5096162;28;19924;-73
2022/05/15 12:01:55;;;;;;;;;;;;;;;;;;5096069;28;19908;-73
2022/05/15 12:04:21;;;;;;;;;;;;;;;;;;5095599;28;20365;-72
2022/05/15 12:06:47;;;;;;;;;;;;;;;;;;5095950;28;19916;-72
2022/05/15 12:09:13;;;;;;;;;;;;;;;;;;5096014;28;19953;-73
2022/05/15 12:11:39;;;;;;;;;;;;;;;;;;5095556;28;19909;-73
2022/05/15 12:14:06;;;;;;;;;;;;;;;;;;5095860;28;19908;-72
2022/05/15 12:16:34;;;;;;;;;;;;;;;;;;5095421;28;19908;-72
2022/05/15 12:19:00;;;;;;;;;;;;;;;;;;5095854;28;19912;-73
2022/05/15 12:21:26;;;;;;;;;;;;;;;;;;5095872;28;20261;-73
2022/05/15 12:26:37;;;;;;;;;;;;;;;;;;5095656;28;20015;-74
2022/05/15 12:29:03;;;;;;;;;;;;;;;;;;5095560;28;19944;-73
2022/05/15 12:31:29;;;;;;;;;;;;;;;;;;5095154;28;19930;-72
2022/05/15 12:33:55;;;;;;;;;;;;;;;;;;5095356;28;20392;-72
2022/05/15 12:36:21;;;;;;;;;;;;;;;;;;5095536;28;19998;-72
2022/05/15 12:38:47;;;;;;;;;;;;;;;;;;5094948;28;20011;-72
2022/05/15 12:41:13;;;;;;;;;;;;;;;;;;5094284;28;19943;-73
2022/05/15 12:43:39;;;;;;;;;;;;;;;;;;5095320;28;19908;-73
2022/05/15 12:46:05;;;;;;;;;;;;;;;;;;5094936;28;19919;-73
2022/05/15 12:48:31;;;;;;;;;;;;;;;;;;5077021;28;20372;-72
2022/05/15 12:51:01;;;;;;;;;;;;;;;;;;5095202;28;19915;-73
2022/05/15 12:53:27;;;;;;;;;;;;;;;;;;5076647;28;19912;-73
2022/05/15 12:55:53;;;;;;;;;;;;;;;;;;5095565;28;20321;-73
2022/05/15 12:58:19;;;;;;;;;;;;;;;;;;5095308;28;19916;-72
2022/05/15 13:00:45;;;;;;;;;;;;;;;;;;5094579;28;19909;-73
2022/05/15 13:03:11;;;;;;;;;;;;;;;;;;5095088;28;19934;-73
2022/05/15 13:05:37;;;;;;;;;;;;;;;;;;5094707;28;19916;-73
2022/05/15 13:08:03;;;;;;;;;;;;;;;;;;5094696;28;20364;-73
2022/05/15 13:10:31;;;;;;;;;;;;;;;;;;5095053;28;20360;-73
2022/05/15 13:12:57;;;;;;;;;;;;;;;;;;5094311;28;19951;-73
2022/05/15 13:15:23;;;;;;;;;;;;;;;;;;5094704;28;19908;-73
2022/05/15 13:17:49;;;;;;;;;;;;;;;;;;5094501;28;19920;-73
2022/05/15 13:20:16;;;;;;;;;;;;;;;;;;5094083;28;19908;-73
2022/05/15 13:22:42;;;;;;;;;;;;;;;;;;5094584;28;19912;-72
2022/05/15 13:25:08;;;;;;;;;;;;;;;;;;5095079;28;20012;-72
2022/05/15 13:27:34;;;;;;;;;;;;;;;;;;5094073;28;20232;-74
2022/05/15 13:30:00;;;;;;;;;;;;;;;;;;5094452;28;19908;-74
2022/05/15 13:32:26;;;;;;;;;;;;;;;;;;5094360;28;19908;-74
2022/05/15 13:34:52;;;;;;;;;;;;;;;;;;5093996;28;20280;-73
2022/05/15 13:37:18;;;;;;;;;;;;;;;;;;5094340;28;20014;-73
2022/05/15 13:45:13;;;;;;;;;;;;;;;;;;5094345;28;20410;-74
2022/05/15 13:47:39;;;;;;;;;;;;;;;;;;5094078;28;19908;-74
2022/05/15 13:50:05;;;;;;;;;;;;;;;;;;5093645;28;19931;-73
2022/05/15 13:52:32;;;;;;;;;;;;;;;;;;5093900;28;19955;-73
2022/05/15 13:54:58;;;;;;;;;;;;;;;;;;5093615;28;20372;-73
2022/05/15 13:57:24;;;;;;;;;;;;;;;;;;5093915;28;19920;-74
2022/05/15 13:59:50;;;;;;;;;;;;;;;;;;5093991;28;19908;-73
2022/05/15 14:02:16;;;;;;;;;;;;;;;;;;5093613;28;19908;-72
2022/05/15 14:04:42;;;;;;;;;;;;;;;;;;5094535;28;19997;-74
2022/05/15 14:07:08;;;;;;;;;;;;;;;;;;5093908;28;19947;-74
2022/05/15 14:09:34;;;;;;;;;;;;;;;;;;5093575;28;19955;-74
2022/05/15 14:12:00;;;;;;;;;;;;;;;;;;5093906;28;20005;-73
2022/05/15 14:14:26;;;;;;;;;;;;;;;;;;5094079;28;20004;-75
2022/05/15 14:16:52;;;;;;;;;;;;;;;;;;5093544;28;19973;-74
2022/05/15 14:19:19;;;;;;;;;;;;;;;;;;5094412;28;19916;-75
2022/05/15 14:21:45;;;;;;;;;;;;;;;;;;5093799;28;20001;-74
2022/05/15 14:24:11;;;;;;;;;;;;;;;;;;5093395;28;19939;-74
2022/05/15 14:26:37;;;;;;;;;;;;;;;;;;5075603;28;20283;-74
2022/05/15 14:29:03;;;;;;;;;;;;;;;;;;5093694;28;19934;-74
2022/05/15 14:31:32;;;;;;;;;;;;;;;;;;5093312;28;19983;-75
2022/05/15 14:33:58;;;;;;;;;;;;;;;;;;5093786;28;19912;-74
2022/05/15 14:36:24;;;;;;;;;;;;;;;;;;5093790;28;20422;-74
2022/05/15 14:38:50;;;;;;;;;;;;;;;;;;5093176;28;19916;-74
2022/05/15 14:41:17;;;;;;;;;;;;;;;;;;5093857;28;19908;-74
2022/05/15 14:43:42;;;;;;;;;;;;;;;;;;5094223;28;19914;-74
2022/05/15 14:46:08;;;;;;;;;;;;;;;;;;5093117;28;20335;-75
2022/05/15 14:48:35;;;;;;;;;;;;;;;;;;5093519;28;19957;-73
2022/05/15 14:51:01;;;;;;;;;;;;;;;;;;5093783;28;19951;-73
2022/05/15 14:53:27;;;;;;;;;;;;;;;;;;5093005;28;19908;-72
2022/05/15 14:56:08;;;;;;;;;;;;;;;;;;5093473;28;19908;-72
2022/05/15 14:58:34;;;;;;;;;;;;;;;;;;5093460;28;19927;-73
2022/05/15 15:01:00;;;;;;;;;;;;;;;;;;5093482;28;19909;-73
2022/05/15 15:03:26;;;;;;;;;;;;;;;;;;5093687;28;20357;-73
2022/05/15 15:05:52;;;;;;;;;;;;;;;;;;5097158;28;19908;-73
2022/05/15 15:08:18;;;;;;;;;;;;;;;;;;5097202;28;19929;-74
2022/05/15 15:10:44;;;;;;;;;;;;;;;;;;5097134;28;19915;-74
2022/05/15 15:13:10;;;;;;;;;;;;;;;;;;5096707;28;19915;-73
2022/05/15 15:15:36;;;;;;;;;;;;;;;;;;5078857;28;20318;-74
2022/05/15 15:18:02;;;;;;;;;;;;;;;;;;5078465;28;20015;-74
2022/05/15 15:20:28;;;;;;;;;;;;;;;;;;5096878;28;20273;-74
2022/05/15 15:22:54;;;;;;;;;;;;;;;;;;5097515;28;19912;-74
2022/05/15 15:25:20;;;;;;;;;;;;;;;;;;5096889;28;19915;-74
2022/05/15 15:27:46;;;;;;;;;;;;;;;;;;5078103;28;19987;-75
2022/05/15 15:30:12;;;;;;;;;;;;;;;;;;5078593;28;19912;-75
2022/05/15 15:32:38;;;;;;;;;;;;;;;;;;5096662;28;19931;-75
2022/05/15 15:35:04;;;;;;;;;;;;;;;;;;5096183;28;19912;-74
2022/05/15 15:40:14;;;;;;;;;;;;;;;;;;5096644;28;19919;-74
2022/05/15 15:42:42;;;;;;;;;;;;;;;;;;5096097;28;19911;-74
2022/05/15 15:45:08;;;;;;;;;;;;;;;;;;5096485;28;19943;-74
2022/05/15 15:47:34;;;;;;;;;;;;;;;;;;5096421;28;19908;-74
2022/05/15 15:50:00;;;;;;;;;;;;;;;;;;5096362;28;19908;-74
2022/05/15 15:52:26;;;;;;;;;;;;;;;;;;5078088;28;19908;-74
2022/05/15 15:54:52;;;;;;;;;;;;;;;;;;5095882;28;20360;-73
2022/05/15 15:57:18;;;;;;;;;;;;;;;;;;5096150;28;20383;-73
2022/05/15 15:59:44;;;;;;;;;;;;;;;;;;5096453;28;19912;-74
2022/05/15 16:02:10;;;;;;;;;;;;;;;;;;5095867;28;19916;-74
2022/05/15 16:04:36;;;;;;;;;;;;;;;;;;5096016;28;20372;-74
2022/05/15 16:07:04;;;;;;;;;;;;;;;;;;5095945;28;19995;-74
2022/05/15 16:09:30;;;;;;;;;;;;;;;;;;5095430;28;19908;-74
2022/05/15 16:11:56;;;;;;;;;;;;;;;;;;5095774;28;19915;-73
2022/05/15 16:14:23;;;;;;;;;;;;;;;;;;5095689;28;19908;-74
2022/05/15 16:16:50;;;;;;;;;;;;;;;;;;5095122;28;20281;-73
2022/05/15 16:19:16;;;;;;;;;;;;;;;;;;5095864;28;19915;-74
2022/05/15 16:21:45;;;;;;;;;;;;;;;;;;5096190;28;20015;-74
2022/05/15 16:24:11;;;;;;;;;;;;;;;;;;5095475;28;20280;-74
2022/05/15 16:26:37;;;;;;;;;;;;;;;;;;5096052;28;19969;-74
2022/05/15 16:29:04;;;;;;;;;;;;;;;;;;5095640;28;19934;-74
2022/05/15 16:31:30;;;;;;;;;;;;;;;;;;5095192;28;20041;-74
2022/05/15 16:33:56;;;;;;;;;;;;;;;;;;5095775;28;20372;-74
2022/05/15 16:36:23;;;;;;;;;;;;;;;;;;5095437;28;20028;-73
2022/05/15 16:40:37;;;;;;;;;;;;;;;;;;5092013;27;20276;-73
2022/05/15 16:43:04;;;;;;;;;;;;;;;;;;5091152;28;19916;-73
2022/05/15 16:45:32;;;;;;;;;;;;;;;;;;5090734;28;19912;-73
2022/05/15 16:48:56;;;;;;;;;;;;;;;;;;5153010;27;20466;-72
2022/05/15 16:51:22;;;;;;;;;;;;;;;;;;5133863;27;19919;-73
2022/05/15 16:53:48;;;;;;;;;;;;;;;;;;5152742;27;19907;-72
2022/05/15 16:56:14;;;;;;;;;;;;;;;;;;5153204;27;19911;-73
2022/05/15 16:58:42;;;;;;;;;;;;;;;;;;5152204;27;19907;-72
2022/05/15 17:01:08;;;;;;;;;;;;;;;;;;5152546;27;19908;-74
2022/05/15 17:03:34;;;;;;;;;;;;;;;;;;5133963;27;20006;-72
2022/05/15 17:07:12;;;;;;;;;;;;;;;;;;5091277;27;19916;-73
2022/05/15 17:09:38;;;;;;;;;;;;;;;;;;5091222;28;19912;-73
2022/05/15 17:12:04;;;;;;;;;;;;;;;;;;5090829;28;19954;-73
2022/05/15 17:14:30;;;;;;;;;;;;;;;;;;5091162;28;19962;-74
2022/05/15 17:16:56;;;;;;;;;;;;;;;;;;5091664;28;19958;-75
2022/05/15 17:19:26;;;;;;;;;;;;;;;;;;5090600;28;19955;-74
2022/05/15 17:21:52;;;;;;;;;;;;;;;;;;5090935;28;19912;-73
2022/05/15 17:24:27;;;;;;;;;;;;;;;;;;5090933;28;19954;-75
2022/05/15 17:26:54;;;;;;;;;;;;;;;;;;5089147;28;19985;-75
2022/05/15 17:34:49;;;;;;;;;;;;;;;;;;5090375;28;19931;-73
2022/05/15 17:37:15;;;;;;;;;;;;;;;;;;5090710;28;20356;-73
2022/05/15 17:39:41;;;;;;;;;;;;;;;;;;5090635;28;19908;-73
2022/05/15 17:42:07;;;;;;;;;;;;;;;;;;5090102;28;19909;-74
2022/05/15 17:44:33;;;;;;;;;;;;;;;;;;5090499;28;19987;-74
2022/05/15 17:46:59;;;;;;;;;;;;;;;;;;5089981;28;20399;-74
2022/05/15 17:49:25;;;;;;;;;;;;;;;;;;5089148;28;19947;-74
2022/05/15 17:51:51;;;;;;;;;;;;;;;;;;5090441;28;19953;-75
2022/05/15 17:54:17;;;;;;;;;;;;;;;;;;5090218;28;19920;-74
2022/05/15 17:57:55;;;;;;;;;;;;;;;;;;5091564;27;19916;-73
2022/05/15 18:00:21;;;;;;;;;;;;;;;;;;5091178;28;19935;-74
2022/05/15 18:02:47;;;;;;;;;;;;;;;;;;5090811;28;19909;-74
2022/05/15 18:05:13;;;;;;;;;;;;;;;;;;5091699;28;20002;-74
2022/05/15 18:07:39;;;;;;;;;;;;;;;;;;5089794;28;19955;-74
2022/05/15 18:10:05;;;;;;;;;;;;;;;;;;5090590;28;19917;-75
2022/05/15 18:12:41;;;;;;;;;;;;;;;;;;5091540;27;19917;-74
2022/05/15 18:17:49;;;;;;;;;;;;;;;;;;5091854;27;19919;-74
2022/05/15 18:21:57;;;;;;;;;;;;;;;;;;5091534;28;19922;-74
2022/05/15 18:25:26;;;;;;;;;;;;;;;;;;5092019;27;19916;-74
2022/05/15 18:29:07;;;;;;;;;;;;;;;;;;5091663;27;20269;-74
2022/05/15 18:31:33;;;;;;;;;;;;;;;;;;5091415;28;19919;-75
2022/05/15 18:34:45;;;;;;;;;;;;;;;;;;5152838;27;19911;-74
2022/05/15 18:38:52;;;;;;;;;;;;;;;;;;5091912;28;19916;-74
2022/05/15 18:41:18;;;;;;;;;;;;;;;;;;5091335;28;19995;-75
2022/05/15 18:43:44;;;;;;;;;;;;;;;;;;5090803;28;20007;-75
2022/05/15 18:46:10;;;;;;;;;;;;;;;;;;5091165;28;19916;-75
2022/05/15 18:48:36;;;;;;;;;;;;;;;;;;5091431;28;20377;-73
2022/05/15 18:55:29;;;;;;;;;;;;;;;;;;5091383;27;20304;-74
2022/05/15 18:57:55;;;;;;;;;;;;;;;;;;5090807;28;19912;-74
2022/05/15 19:00:21;;;;;;;;;;;;;;;;;;5091215;28;19941;-75
2022/05/15 19:02:47;;;;;;;;;;;;;;;;;;5091175;28;19908;-75
2022/05/15 19:05:13;;;;;;;;;;;;;;;;;;5091074;28;19908;-75
2022/05/15 19:07:39;;;;;;;;;;;;;;;;;;5091171;28;20277;-75
2022/05/15 19:12:34;;;;;;;;;;;;;;;;;;5091205;28;19938;-74
2022/05/15 19:15:00;;;;;;;;;;;;;;;;;;5091331;28;19999;-73
2022/05/15 19:17:26;;;;;;;;;;;;;;;;;;5089923;28;20003;-75
2022/05/15 19:19:53;;;;;;;;;;;;;;;;;;5090801;28;19996;-74
2022/05/15 19:25:12;;;;;;;;;;;;;;;;;;5152957;27;20006;-74
2022/05/15 19:28:16;;;;;;;;;;;;;;;;;;5091506;27;19922;-74
2022/05/15 19:31:42;;;;;;;;;;;;;;;;;;5091364;27;20296;-73
2022/05/15 19:34:08;;;;;;;;;;;;;;;;;;5090910;28;20389;-73
2022/05/15 19:40:22;;;;;;;;;;;;;;;;;;5091125;28;19916;-76
2022/05/15 19:42:48;;;;;;;;;;;;;;;;;;5091237;28;19919;-74
2022/05/15 19:45:14;;;;;;;;;;;;;;;;;;5089894;28;19908;-74
2022/05/15 19:47:40;;;;;;;;;;;;;;;;;;5090782;28;19966;-74
2022/05/15 19:50:48;;;;;;;;;;;;;;;;;;5092040;27;20283;-73
2022/05/15 19:53:14;;;;;;;;;;;;;;;;;;5091256;28;19912;-73
2022/05/15 19:55:40;;;;;;;;;;;;;;;;;;5090774;28;19999;-74
2022/05/15 19:59:57;;;;;;;;;;;;;;;;;;5091672;27;20322;-76
2022/05/15 20:02:23;;;;;;;;;;;;;;;;;;5090960;28;20419;-74
2022/05/15 20:13:14;;;;;;;;;;;;;;;;;;5089186;28;20358;-73
2022/05/15 20:15:40;;;;;;;;;;;;;;;;;;5090935;28;19978;-74
2022/05/15 20:21:29;;;;;;;;;;;;;;;;;;5091872;27;20299;-74
2022/05/15 20:26:15;;;;;;;;;;;;;;;;;;5092125;27;20271;-73
2022/05/15 20:31:08;;;;;;;;;;;;;;;;;;5091586;27;19916;-74
2022/05/15 20:33:34;;;;;;;;;;;;;;;;;;5091329;28;19912;-74
2022/05/15 20:36:00;;;;;;;;;;;;;;;;;;5090814;28;19909;-74
2022/05/15 20:38:26;;;;;;;;;;;;;;;;;;5091147;28;19915;-75
2022/05/15 20:43:52;;;;;;;;;;;;;;;;;;5091061;27;19916;-75
2022/05/15 20:46:18;;;;;;;;;;;;;;;;;;5091309;28;20361;-75
2022/05/15 20:49:07;;;;;;;;;;;;;;;;;;5091686;27;19917;-74
2022/05/15 20:51:36;;;;;;;;;;;;;;;;;;5090920;28;19934;-75
2022/05/15 20:56:12;;;;;;;;;;;;;;;;;;5091649;27;19922;-75